Aviation Digital Data Service (ADDS)

Output produced by METARs form (1832 UTC 30 January 2015)
found at http://www.aviationweather.gov/adds/metars/
 
KMDT 301756Z 30023G28KT 10SM OVC035 00/M06 A2999 RMK AO2 PK WND 29028/1756 SLP159 4/003 60000 T00001061 10022 20000 51005
KMDT 301656Z 31016G25KT 10SM FEW035 OVC045 01/M05 A2999 RMK AO2 PK WND 32026/1642 SLP159 T00111050
KMDT 301556Z 32018G25KT 10SM BKN040 OVC080 02/M06 A2998 RMK AO2 SLP158 T00221056
KMDT 301456Z 30014KT 10SM FEW025 OVC080 01/M04 A2998 RMK AO2 SLP154 60000 T00111044 53016
KMDT 301356Z 30015KT 10SM OVC075 01/M04 A2995 RMK AO2 SLP146 T00111039
KMDT 301256Z 30014KT 10SM SCT050 OVC075 01/M04 A2993 RMK AO2 SNE09 SLP139 P0000 T00061039
KMDT 301222Z 31011KT 10SM OVC060 00/M03 A2993 RMK AO2 SNE09 P0000 T00001033
KMDT 301156Z COR 6SM -SN OVC030 00/M03 A2993 RMK AO2 SLP138 4/003 P0001 60001 70007 T00001028 10000 21022 53013 $
KMDT 301056Z 30007KT 4SM -SN BKN032 OVC055 M01/M03 A2991 RMK AO2 SNB26 SLP134 P0000 T10061033 $
KMDT 300956Z 30011KT 8SM FEW045 OVC080 M01/M04 A2989 RMK AO2 SLP126 T10111039 $
KMDT 300856Z 31009KT 7SM FEW034 BKN045 OVC080 M02/M04 A2989 RMK AO2 SNE42 SLP125 P0000 60000 T10221039 56005 $
KMDT 300756Z 31009KT 7SM -SN BKN030 BKN042 OVC050 M02/M04 A2990 RMK AO2 SNB54 SLP127 P0000 T10221039 $
KMDT 300656Z 33005KT 8SM OVC055 M02/M04 A2989 RMK AO2 SLP126 T10221039
KMDT 300556Z 00000KT 8SM SCT032 OVC044 M02/M04 A2990 RMK AO2 SLP130 4/003 60000 I6000 T10171039 11017 21033 56016
KMDT 300456Z 11003KT 9SM BKN036 OVC060 M02/M04 A2992 RMK AO2 SNE42 SLP136 P0000 T10171039 410061122
KMDT 300356Z 10004KT 6SM -SN BR BKN042 OVC049 M02/M04 A2993 RMK AO2 SNB38 SLP141 P0000 T10171039
KMDT 300256Z 11007KT 9SM FEW015 OVC042 M02/M04 A2995 RMK AO2 SNE07 SLP147 P0000 60000 I3000 T10221039 58027
KMDT 300156Z 11006KT 8SM -SN SCT015 OVC040 M02/M04 A2998 RMK AO2 SNE09B44 SLP157 P0000 T10221044
KMDT 300056Z 11006KT 8SM -SN BKN015 OVC040 M03/M04 A3001 RMK AO2 FZDZE17SNB26 SLP167 P0000 I1000 T10281044
KMDT 300018Z 13007KT 9SM BKN012 OVC025 M03/M04 A3002 RMK AO2 FZDZE17 P0000 I1000 T10331044
KMDT 292356Z 12008KT 5SM -FZDZ BR BKN012 BKN025 OVC040 M03/M04 A3003 RMK AO2 FZDZB42SNE42PLE42 SLP176 4/003 P0000 60006 I1000 I6000 T10331044 11006 21033 58016
KMDT 292342Z 12007KT 5SM -FZDZ BR BKN015 BKN025 OVC040 M03/M04 A3004 RMK AO2 FZDZB42SNE42PLE42 P0000 I1000 T10281044
KMDT 292327Z 14007KT 5SM -PLSN BR SCT012 BKN025 OVC040 M03/M04 A3005 RMK AO2 P0000 T10281044
KMDT 292306Z 14005KT 5SM -PLSN BR SCT020 OVC040 M03/M04 A3006 RMK AO2 P0000 T10331044
KMDT 292256Z 14007KT 2 1/2SM -SNPL BR SCT020 OVC040 M03/M04 A3005 RMK AO2 PLB44 SLP183 SNINCR 1/3 P0005 T10331044
KMDT 292245Z 15007KT 1 3/4SM R13/4500VP6000FT -SNPL BR BKN020 OVC040 M03/M04 A3006 RMK AO2 PLB44 P0005 T10331044
KMDT 292231Z 16005KT 1/2SM R13/4000VP6000FT SN FZFG BKN015 OVC022 M03/M04 A3006 RMK AO2 P0002 T10281044
KMDT 292203Z 17008G18KT 3/4SM R13/4500VP6000FT -SN BR BKN025 OVC035 M03/M06 A3006 RMK AO2 P0000 T10281056
KMDT 292156Z 19012KT 1 1/4SM -SN BKN025 OVC035 M02/M06 A3007 RMK AO2 SNB40 SLP187 P0001 T10221061
KMDT 292147Z 19013G18KT 1 1/2SM -SN SCT025 BKN035 OVC050 M01/M09 A3007 RMK AO2 SNB40 P0000 T10111089
KMDT 292056Z 16005KT 10SM BKN060 OVC085 M01/M11 A3008 RMK AO2 SLP191 VIRGA OHD-ALQDS T10061106 55029
KMDT 291956Z 13012KT 10SM BKN070 OVC090 M01/M10 A3006 RMK AO2 SLP186 VIRGA OHD-ALQDS T10111100
KMDT 291856Z 13006KT 10SM OVC085 M02/M09 A3012 RMK AO2 SLP206 T10171089
KMDT 291756Z 15005KT 10SM OVC095 M02/M11 A3017 RMK AO2 SLP220 T10221106 11022 21117 57040
KMDT 291656Z 14004KT 10SM FEW110 OVC250 M04/M12 A3021 RMK AO2 SLP235 T10391122
KMDT 291556Z 15003KT 8SM FEW110 OVC250 M05/M11 A3024 RMK AO2 SLP246 T10501111
KMDT 291456Z 11004KT 9SM OVC250 M07/M13 A3028 RMK AO2 SLP261 T10671133 56009
KMDT 291356Z 12004KT 7SM BKN250 M09/M13 A3029 RMK AO2 SLP262 T10891128
KMDT 291256Z 10003KT 8SM BKN250 M10/M13 A3030 RMK AO2 SLP265 T11001133
KMDT 291156Z COR VRB04KT 9SM CLR M12/M15 A3031 RMK AO2 SLP270 4/002 T11221150 11078 21122 56003
KMDT 291056Z 32005KT 10SM CLR M10/M14 A3031 RMK AO2 SLP271 T11001144
KMDT 290956Z 31008KT 10SM FEW250 M09/M14 A3031 RMK AO2 SLP270 T10941144
KMDT 290856Z 32009KT 10SM FEW250 M09/M14 A3032 RMK AO2 SLP272 T10891144 53001
KMDT 290756Z 33007KT 10SM FEW250 M09/M14 A3031 RMK AO2 SLP271 T10891139
KMDT 290656Z 31010KT 10SM FEW250 M08/M14 A3032 RMK AO2 SLP271 T10831139